Airfield :
LOGIN :

Register | Disclaimer

   EN    FR    IT 

 










Legend :    VFR   Marginal VFR   IFR   Intensive IFR   Very Intensive IFR
Visi :
Ceiling :
>= 8 km
>= 3000ft
5 to 8 km
1000 to 3000 ft
1500m to 5 km
500 to 1000 ft
800 to 1500m
200 to 500 ft
< 800m
< 200 ft
Symbols :   Thunderstorms  Fog  Heavy snow  Heavy precipitations  Wind > 20 kt
SIGMETs :     Misc.  Thunderstorms  Icing  Turbulence  Mountain Waves  Volcanic Ashes







- Airport Elevation : 392 ft
- IATA code : CDG
- Download approach charts


LFPG - Paris-Aeroport Charles De Gaulle

CURRENT METAR :
  • 201700Z 10009KT 6000 BKN007 BKN040 02/01 Q1003 NOSIG

EXPIRED METARs :
  • 201630Z 10008KT 6000 BKN008 BKN040 02/01 Q1003 NOSIG
  • 201600Z 10010KT 7000 FEW007 BKN010 02/01 Q1002 NOSIG
  • 201530Z 10008KT 7000 BKN010 03/01 Q1002 NOSIG
  • 201500Z 10010KT 7000 BKN010 03/01 Q1002 NOSIG
  • 201430Z 11011KT 7000 BKN012 BKN030 03/01 Q1002 NOSIG

TAF AMD TAF LFPG
Valid from the 20 at 16:00 until the 21 at 18:00 UTC


201646Z 2016/2118 11010KT 5000 BKN016 TX04/2114Z TNM02/2106Z
TEMPO 2016/2019 BKN007
BECMG 2019/2021 3000 BR BKN005
PROB40
TEMPO 2101/2110 0500 FG VV///
BECMG 2110/2112 6000 NSW BKN008
TEMPO 2115/2118 SCT015
ATIS : +33 1 48 62 10 92
No reported NOTAMs for that airfield.



MET'MAP, your aeronautical weather chart ! - Copyright ORBIFLY December 2007 - Disclaimer

ORBIFLY MET'MAP TEAM :

Programming & Development : Alexandra Zaïnal
Concept & Development : Baudouin d'Aumeries
Co-Development & Prog : Marc-Olivier Méhu
Technical & hardware support : Manuel Goepfert

Contact : metmap@orbifly.com




SOURCES & CREDITS :

   NOAA